PROFILE

 METAR AND TAF INFORMATION
ADDS - METARS form results

(1241 UTC 26 March 2019)
http://aviationweather.gov/metar/data/
 
DGAA 261200Z 18008KT 140V210 9999 FEW029 32/24 Q1011 NOSIG
TAF DGAA 261100Z 2612/2718 19010KT 9999 SCT020 TEMPO 2615/2619 TS FEW030CB BECMG 2700/2702 2610KT BKN011 BECMG 2704/2706 5000 BR 

 AIRPORT MAP

 RUNWAY INFORMATION
Runway 03 Runway length 11165 ft Runway width 200 ft
Runway elevation 177 ft Runway displaced threshold 0 ft Runway heading 22
Runway 21 Runway length 11165 ft Runway width 200 ft
Runway elevation 197 ft Runway displaced threshold 1349 ft Runway heading 202

 AIRPORT FREQUENCIES
Type APP Name ACCRA APP Frequency 119.5 MHZ
Type GND Name ACCRA GND Frequency 121.9 MHZ
Type TWR Name ACCRA TWR Frequency 119.1 MHZ

 AIRPORT NEAR NAVIGATION AIDS
Type NDB Name Accra Frequency 409 KHZ
Type VOR-DME Name Accra Frequency 113100 KHZ